Time;durP1;ratioP1;P1;durP2;ratioP2;P2;SDS_P1;SDS_P2;PMS_P1;PMS_P2;Temp;Humidity;BMP_temperature;BMP_pressure;BME280_temperature;BME280_humidity;BME280_pressure;Samples;Min_cycle;Max_cycle;Signal;HPM_P1;HPM_P2
2021/11/28 00:27:11;;;;;;;6.85;3.40;;;22.90;61.40;;;;;;31513679;28;20049;-50
2021/11/28 00:42:15;;;;;;;5.78;3.85;;;22.80;61.40;;;;;;31564626;28;20062;-47
2021/11/28 00:57:17;;;;;;;4.70;2.85;;;22.70;61.70;;;;;;31624666;28;20108;-54
2021/11/28 01:12:20;;;;;;;5.63;3.20;;;23.10;62.70;;;;;;31549529;28;20052;-56
2021/11/28 01:27:22;;;;;;;4.18;3.17;;;23.30;62.30;;;;;;31606991;28;20054;-57
2021/11/28 01:42:59;;;;;;;5.03;2.65;;;23.20;61.20;;;;;;31584261;28;20096;-45
2021/11/28 01:58:04;;;;;;;4.88;2.50;;;23.10;61.40;;;;;;31518521;28;20078;-48
2021/11/28 02:13:06;;;;;;;2.55;2.22;;;23.00;61.50;;;;;;31618034;28;20090;-43
2021/11/28 02:28:08;;;;;;;4.07;2.20;;;22.90;61.60;;;;;;31537723;28;20075;-55
2021/11/28 02:43:10;;;;;;;3.30;2.42;;;22.80;61.00;;;;;;31534943;28;20064;-41
2021/11/28 02:58:14;;;;;;;3.95;2.47;;;22.70;61.80;;;;;;31587528;28;20116;-55
2021/11/28 03:13:23;;;;;;;3.83;2.67;;;22.90;62.10;;;;;;31597352;28;20090;-55
2021/11/28 03:28:25;;;;;;;2.37;2.10;;;23.20;62.50;;;;;;31570678;28;20052;-46
2021/11/28 03:43:27;;;;;;;2.55;2.35;;;23.20;61.80;;;;;;31526536;28;20068;-45
2021/11/28 03:58:29;;;;;;;3.53;2.40;;;23.10;61.30;;;;;;31592606;28;20143;-47
2021/11/28 04:13:31;;;;;;;3.33;2.00;;;23.00;61.70;;;;;;31527693;28;20053;-48
2021/11/28 04:28:33;;;;;;;3.03;2.33;;;22.90;61.70;;;;;;31570824;28;20071;-53
2021/11/28 04:43:35;;;;;;;3.35;1.92;;;22.80;61.60;;;;;;31563266;28;20051;-42
2021/11/28 04:58:37;;;;;;;2.72;2.20;;;22.80;61.80;;;;;;31611860;28;20504;-39
2021/11/28 05:13:39;;;;;;;2.30;1.65;;;22.80;61.90;;;;;;31626202;28;20064;-53
2021/11/28 05:28:42;;;;;;;3.90;1.75;;;23.20;61.80;;;;;;31508584;28;20142;-52
2021/11/28 05:43:46;;;;;;;4.43;2.20;;;23.20;61.40;;;;;;31580907;28;20036;-53
2021/11/28 05:58:48;;;;;;;12.02;3.67;;;23.10;58.20;;;;;;31522025;28;20048;-51
2021/11/28 06:13:50;;;;;;;9.50;4.30;;;22.90;55.80;;;;;;31602034;28;20071;-40
2021/11/28 06:28:52;;;;;;;10.07;3.45;;;22.70;55.40;;;;;;31618774;28;20174;-42
2021/11/28 06:43:56;;;;;;;6.43;3.13;;;22.90;57.60;;;;;;31639491;28;20096;-54
2021/11/28 06:58:58;;;;;;;9.23;3.05;;;23.20;57.90;;;;;;31630832;28;20190;-45
2021/11/28 07:14:00;;;;;;;4.15;2.97;;;23.20;58.20;;;;;;31633206;28;20067;-42
2021/11/28 07:29:02;;;;;;;7.40;3.78;;;23.10;58.40;;;;;;31630920;28;20071;-45
2021/11/28 07:44:04;;;;;;;7.80;3.67;;;23.00;58.90;;;;;;31629148;28;20100;-44
2021/11/28 07:59:06;;;;;;;8.47;3.57;;;22.90;59.30;;;;;;31589115;28;1234913;-55
2021/11/28 08:14:08;;;;;;;4.93;2.70;;;22.90;59.30;;;;;;31633495;28;20297;-43
2021/11/28 08:29:11;;;;;;;5.40;2.75;;;23.20;58.80;;;;;;31627880;28;20045;-42
2021/11/28 08:44:13;;;;;;;10.85;3.03;;;23.20;58.70;;;;;;31620587;28;20104;-46
2021/11/28 08:59:16;;;;;;;5.35;3.38;;;23.20;58.80;;;;;;31214705;28;9999803;-44
2021/11/28 09:14:18;;;;;;;4.90;3.63;;;23.00;58.60;;;;;;31537738;28;20056;-50
2021/11/28 09:29:20;;;;;;;8.63;6.03;;;22.90;58.30;;;;;;31533112;28;20072;-54
2021/11/28 09:44:23;;;;;;;4.53;3.42;;;22.90;58.20;;;;;;31753795;28;20115;-51
2021/11/28 09:59:26;;;;;;;6.57;3.72;;;22.80;58.60;;;;;;31577138;28;20080;-48
2021/11/28 10:14:28;;;;;;;7.63;3.65;;;22.80;58.70;;;;;;31570438;28;20095;-50
2021/11/28 10:29:36;;;;;;;7.47;5.38;;;23.00;59.20;;;;;;31501322;28;20128;-57
2021/11/28 10:44:38;;;;;;;5.93;5.00;;;23.30;58.80;;;;;;31497041;28;20045;-53
2021/11/28 10:59:43;;;;;;;5.38;4.97;;;23.30;58.70;;;;;;31500598;28;20056;-50
2021/11/28 11:14:46;;;;;;;6.25;4.18;;;23.20;58.70;;;;;;31530276;28;20128;-46
2021/11/28 11:29:56;;;;;;;12.95;4.50;;;23.10;59.20;;;;;;31559721;28;20059;-56
2021/11/28 11:44:58;;;;;;;12.43;3.97;;;23.00;58.90;;;;;;31637956;28;20056;-41
2021/11/28 12:00:14;;;;;;;17.25;4.40;;;23.00;59.00;;;;;;31238398;28;9999820;-49
2021/11/28 12:15:20;;;;;;;12.30;4.13;;;23.00;59.60;;;;;;31571462;28;20045;-39
2021/11/28 12:30:33;;;;;;;7.70;3.88;;;23.00;59.90;;;;;;31573108;28;20512;-50
2021/11/28 12:45:35;;;;;;;11.85;4.63;;;22.90;60.20;;;;;;31541243;28;20096;-51
2021/11/28 13:00:39;;;;;;;111.50;57.25;;;22.90;60.60;;;;;;31550580;28;20132;-42
2021/11/28 13:15:47;;;;;;;74.03;40.70;;;23.00;60.20;;;;;;31557393;28;20045;-54
2021/11/28 13:30:58;;;;;;;47.42;25.75;;;22.90;61.20;;;;;;31507659;28;20056;-51
2021/11/28 13:46:00;;;;;;;47.22;23.35;;;22.70;61.40;;;;;;31505854;28;20057;-52
2021/11/28 14:01:04;;;;;;;31.67;17.63;;;22.70;61.30;;;;;;31504305;28;20073;-52
2021/11/28 14:16:07;;;;;;;22.38;12.88;;;23.20;61.10;;;;;;31503258;28;20104;-56
2021/11/28 14:31:16;;;;;;;16.08;11.38;;;23.40;60.80;;;;;;31502456;28;20099;-49
2021/11/28 14:46:47;;;;;;;16.73;10.57;;;23.30;61.50;;;;;;31499634;28;20101;-54
2021/11/28 15:02:00;;;;;;;20.43;9.37;;;23.30;61.00;;;;;;31514268;28;20385;-56
2021/11/28 15:17:03;;;;;;;13.77;8.70;;;23.20;61.10;;;;;;31512714;28;20045;-58
2021/11/28 15:32:05;;;;;;;14.93;7.97;;;23.00;61.00;;;;;;31594481;28;20070;-58
2021/11/28 15:47:07;;;;;;;12.20;8.23;;;22.90;61.20;;;;;;31632971;28;20108;-57
2021/11/28 16:02:10;;;;;;;10.30;6.82;;;22.80;61.30;;;;;;31634063;28;20076;-57
2021/11/28 16:17:13;;;;;;;12.00;6.75;;;22.90;60.90;;;;;;31632400;28;20049;-58
2021/11/28 16:32:15;;;;;;;12.10;6.00;;;23.20;60.10;;;;;;31625207;28;20157;-58
2021/11/28 16:47:17;;;;;;;13.90;7.38;;;23.20;60.20;;;;;;31486561;28;20069;-52
2021/11/28 17:02:19;;;;;;;8.35;5.43;;;23.20;60.60;;;;;;31503034;28;20057;-45
2021/11/28 17:17:22;;;;;;;11.63;5.60;;;23.20;60.50;;;;;;31509246;28;20202;-49
2021/11/28 17:32:24;;;;;;;9.50;6.28;;;23.20;60.70;;;;;;31623077;28;20049;-47
2021/11/28 17:47:28;;;;;;;10.32;5.90;;;23.20;61.80;;;;;;31621792;28;20064;-45
2021/11/28 18:02:30;;;;;;;12.52;5.90;;;23.20;62.20;;;;;;31626626;28;20056;-54
2021/11/28 18:17:32;;;;;;;17.92;7.80;;;23.10;63.40;;;;;;31620910;28;20082;-55
2021/11/28 18:32:35;;;;;;;13.95;6.22;;;23.20;65.00;;;;;;31641045;28;20056;-47
2021/11/28 18:47:37;;;;;;;14.05;5.78;;;23.20;65.50;;;;;;31642878;28;20041;-58
2021/11/28 19:02:39;;;;;;;9.50;5.07;;;23.10;65.50;;;;;;31623892;28;20143;-51
2021/11/28 19:17:42;;;;;;;8.20;4.78;;;23.00;66.70;;;;;;31643694;28;20064;-56
2021/11/28 19:32:44;;;;;;;12.90;4.72;;;23.00;65.00;;;;;;31524933;28;20083;-45
2021/11/28 19:47:46;;;;;;;10.73;4.60;;;23.00;64.60;;;;;;31512440;28;20065;-53
2021/11/28 20:02:48;;;;;;;10.23;5.00;;;23.00;64.90;;;;;;31503235;28;20049;-54
2021/11/28 20:17:51;;;;;;;9.15;4.00;;;23.00;65.40;;;;;;31541998;28;20047;-47
2021/11/28 20:32:53;;;;;;;13.98;4.05;;;22.90;65.10;;;;;;31622516;28;20190;-42
2021/11/28 20:47:58;;;;;;;11.85;4.28;;;22.90;65.80;;;;;;31557635;28;20064;-51
2021/11/28 21:03:00;;;;;;;6.30;3.88;;;22.90;65.60;;;;;;31527960;28;20056;-47
2021/11/28 21:18:04;;;;;;;41.53;32.15;;;22.80;64.90;;;;;;31255644;28;10000773;-41
2021/11/28 21:33:07;;;;;;;12.93;9.13;;;22.90;63.60;;;;;;31621661;28;20072;-47
2021/11/28 21:48:09;;;;;;;8.68;7.05;;;23.00;63.70;;;;;;31617166;28;20113;-44
2021/11/28 22:03:13;;;;;;;4.30;3.78;;;23.00;63.20;;;;;;31516506;28;20405;-43
2021/11/28 22:18:15;;;;;;;3.17;2.30;;;23.00;63.40;;;;;;31523906;28;20048;-41
2021/11/28 22:33:19;;;;;;;1.48;1.30;;;23.10;62.90;;;;;;31588789;28;20051;-47
2021/11/28 22:48:21;;;;;;;1.25;0.85;;;23.00;63.60;;;;;;31625929;28;20100;-52
2021/11/28 23:03:23;;;;;;;3.80;2.78;;;23.00;63.20;;;;;;31625268;28;20085;-49
2021/11/28 23:18:25;;;;;;;16.27;11.23;;;23.00;62.50;;;;;;31633574;28;20041;-47
2021/11/28 23:33:27;;;;;;;11.30;7.45;;;22.90;62.80;;;;;;31575399;28;20072;-44
2021/11/28 23:48:29;;;;;;;5.85;4.80;;;22.90;62.60;;;;;;31516867;28;20064;-42
